Invesco Field (Denver), Colorado
Current Conditions -  °F | °C
As of 8:47 AM on Thursday 23 Oct 2014 (Local Time) from KBJC Reporting Station
Scattered Clouds Scattered Clouds  
Wind Chill: 52°   Ceiling: Unl
Heat Index: 52°   Visibility: 70mi
Dew Point: 36°   Wind: 3mph
Humidity: 54%   Direction: 240°WSW
Pressure: 30.19"   Gusts: NA
Location:  39.74401°N, 105.0253°W
Report Text: KBJC 231447Z 24003KT 70SM FEW080 SCT120 11/02 A3019
Loading
Personal Weather Stations






























Interactive Weather Map
Tropical Storm Tracking
New forecast layout! Learn more

10-Day Weather Forecast

Advertisements
Track Severe Weather on mobile